Barnett Township, Illinois
Current Conditions -  °F | °C
As of 9:55 PM on Friday 31 Oct 2014 (Local Time) from KAAA Reporting Station
Clear Clear  
Wind Chill: -1°   Ceiling: Unl
Heat Index:   Visibility: 10mi
Dew Point: -6°   Wind: 9mph
Humidity: 54%   Direction: 350°N
Pressure: 30.38"   Gusts: 16mph
Location:  40.143°N, 88.9637°W
Report Text: KAAA 010255Z AUTO 35008G14KT 10SM CLR 03/M06 A3038 RMK AO2 T00251060
Loading
Personal Weather Stations






























Interactive Weather Map
Tropical Storm Tracking
New forecast layout! Learn more

10-Day Weather Forecast

Advertisements
Track Severe Weather on mobile